sensor_id;sensor_type;location;lat;lon;timestamp;temperature;humidity
22765;DHT22;11549;50.852;3.816;2023-02-28T00:01:36;1.70;99.90
22765;DHT22;11549;50.852;3.816;2023-02-28T00:04:04;1.70;99.90
22765;DHT22;11549;50.852;3.816;2023-02-28T00:06:33;1.60;99.90
22765;DHT22;11549;50.852;3.816;2023-02-28T00:09:01;1.50;99.90
22765;DHT22;11549;50.852;3.816;2023-02-28T00:11:29;1.50;99.90
22765;DHT22;11549;50.852;3.816;2023-02-28T00:13:59;1.50;99.90
22765;DHT22;11549;50.852;3.816;2023-02-28T00:16:28;1.40;99.90
22765;DHT22;11549;50.852;3.816;2023-02-28T00:18:56;1.50;99.90
22765;DHT22;11549;50.852;3.816;2023-02-28T00:21:24;1.60;99.90
22765;DHT22;11549;50.852;3.816;2023-02-28T00:23:53;1.60;99.90
22765;DHT22;11549;50.852;3.816;2023-02-28T00:26:22;1.50;99.90
22765;DHT22;11549;50.852;3.816;2023-02-28T00:28:51;1.70;99.90
22765;DHT22;11549;50.852;3.816;2023-02-28T00:31:21;1.70;99.90
22765;DHT22;11549;50.852;3.816;2023-02-28T00:33:50;1.70;99.90
22765;DHT22;11549;50.852;3.816;2023-02-28T00:36:18;1.70;99.90
22765;DHT22;11549;50.852;3.816;2023-02-28T00:38:47;1.70;99.90
22765;DHT22;11549;50.852;3.816;2023-02-28T00:41:15;1.70;99.90
22765;DHT22;11549;50.852;3.816;2023-02-28T00:43:43;1.70;99.90
22765;DHT22;11549;50.852;3.816;2023-02-28T00:46:11;1.60;99.90
22765;DHT22;11549;50.852;3.816;2023-02-28T00:48:41;1.60;99.90
22765;DHT22;11549;50.852;3.816;2023-02-28T00:51:10;1.60;99.90
22765;DHT22;11549;50.852;3.816;2023-02-28T00:53:38;1.60;99.90
22765;DHT22;11549;50.852;3.816;2023-02-28T00:56:07;1.70;99.90
22765;DHT22;11549;50.852;3.816;2023-02-28T00:58:35;1.70;99.90
22765;DHT22;11549;50.852;3.816;2023-02-28T01:01:04;1.60;99.90
22765;DHT22;11549;50.852;3.816;2023-02-28T01:03:32;1.60;99.90
22765;DHT22;11549;50.852;3.816;2023-02-28T01:06:03;1.60;99.90
22765;DHT22;11549;50.852;3.816;2023-02-28T01:08:31;1.50;99.90
22765;DHT22;11549;50.852;3.816;2023-02-28T01:11:08;1.50;99.90
22765;DHT22;11549;50.852;3.816;2023-02-28T01:13:36;1.50;99.90
22765;DHT22;11549;50.852;3.816;2023-02-28T01:16:06;1.50;99.90
22765;DHT22;11549;50.852;3.816;2023-02-28T01:18:35;1.50;99.90
22765;DHT22;11549;50.852;3.816;2023-02-28T01:21:05;1.50;99.90
22765;DHT22;11549;50.852;3.816;2023-02-28T01:23:34;1.50;99.90
22765;DHT22;11549;50.852;3.816;2023-02-28T01:26:06;1.60;99.90
22765;DHT22;11549;50.852;3.816;2023-02-28T01:28:35;1.40;99.90
22765;DHT22;11549;50.852;3.816;2023-02-28T01:31:04;1.40;99.90
22765;DHT22;11549;50.852;3.816;2023-02-28T01:33:32;1.40;99.90
22765;DHT22;11549;50.852;3.816;2023-02-28T01:36:03;1.30;99.90
22765;DHT22;11549;50.852;3.816;2023-02-28T01:38:33;1.30;99.90
22765;DHT22;11549;50.852;3.816;2023-02-28T01:41:02;1.40;99.90
22765;DHT22;11549;50.852;3.816;2023-02-28T01:43:32;1.30;99.90
22765;DHT22;11549;50.852;3.816;2023-02-28T01:46:20;1.30;99.90
22765;DHT22;11549;50.852;3.816;2023-02-28T01:48:52;1.30;99.90
22765;DHT22;11549;50.852;3.816;2023-02-28T01:51:24;1.20;99.90
22765;DHT22;11549;50.852;3.816;2023-02-28T01:54:00;1.30;99.90
22765;DHT22;11549;50.852;3.816;2023-02-28T01:56:34;1.40;99.90
22765;DHT22;11549;50.852;3.816;2023-02-28T01:59:04;1.30;99.90
22765;DHT22;11549;50.852;3.816;2023-02-28T02:01:32;1.40;99.90
22765;DHT22;11549;50.852;3.816;2023-02-28T02:04:02;1.30;99.90
22765;DHT22;11549;50.852;3.816;2023-02-28T02:06:34;1.30;99.90
22765;DHT22;11549;50.852;3.816;2023-02-28T02:09:05;1.40;99.90
22765;DHT22;11549;50.852;3.816;2023-02-28T02:11:34;1.40;99.90
22765;DHT22;11549;50.852;3.816;2023-02-28T02:14:15;1.40;99.90
22765;DHT22;11549;50.852;3.816;2023-02-28T02:16:55;1.40;99.90
22765;DHT22;11549;50.852;3.816;2023-02-28T02:19:47;1.50;99.90
22765;DHT22;11549;50.852;3.816;2023-02-28T02:25:28;1.40;99.90
22765;DHT22;11549;50.852;3.816;2023-02-28T02:31:26;1.30;99.90
22765;DHT22;11549;50.852;3.816;2023-02-28T02:36:52;1.30;99.90
22765;DHT22;11549;50.852;3.816;2023-02-28T02:39:30;1.20;99.90
22765;DHT22;11549;50.852;3.816;2023-02-28T02:42:02;1.20;99.90
22765;DHT22;11549;50.852;3.816;2023-02-28T02:44:37;1.20;99.90
22765;DHT22;11549;50.852;3.816;2023-02-28T02:47:12;1.10;99.90
22765;DHT22;11549;50.852;3.816;2023-02-28T02:49:44;1.10;99.90
22765;DHT22;11549;50.852;3.816;2023-02-28T02:52:18;1.10;99.90
22765;DHT22;11549;50.852;3.816;2023-02-28T02:54:50;1.00;99.90
22765;DHT22;11549;50.852;3.816;2023-02-28T02:57:25;1.10;99.90
22765;DHT22;11549;50.852;3.816;2023-02-28T02:59:55;1.10;99.90
22765;DHT22;11549;50.852;3.816;2023-02-28T03:02:24;1.00;99.90
22765;DHT22;11549;50.852;3.816;2023-02-28T03:04:59;1.00;99.90
22765;DHT22;11549;50.852;3.816;2023-02-28T03:07:30;1.00;99.90
22765;DHT22;11549;50.852;3.816;2023-02-28T03:09:58;1.00;99.90
22765;DHT22;11549;50.852;3.816;2023-02-28T03:12:33;1.10;99.90
22765;DHT22;11549;50.852;3.816;2023-02-28T03:15:08;1.10;99.90
22765;DHT22;11549;50.852;3.816;2023-02-28T03:18:01;1.10;99.90
22765;DHT22;11549;50.852;3.816;2023-02-28T03:20:39;1.10;99.90
22765;DHT22;11549;50.852;3.816;2023-02-28T03:23:17;1.00;99.90
22765;DHT22;11549;50.852;3.816;2023-02-28T03:25:53;1.10;99.90
22765;DHT22;11549;50.852;3.816;2023-02-28T03:28:31;1.10;99.90
22765;DHT22;11549;50.852;3.816;2023-02-28T03:31:06;1.00;99.90
22765;DHT22;11549;50.852;3.816;2023-02-28T03:33:41;1.00;99.90
22765;DHT22;11549;50.852;3.816;2023-02-28T03:36:13;0.90;99.90
22765;DHT22;11549;50.852;3.816;2023-02-28T03:38:47;0.90;99.90
22765;DHT22;11549;50.852;3.816;2023-02-28T03:41:20;0.90;99.90
22765;DHT22;11549;50.852;3.816;2023-02-28T03:43:53;0.90;99.90
22765;DHT22;11549;50.852;3.816;2023-02-28T03:46:23;0.90;99.90
22765;DHT22;11549;50.852;3.816;2023-02-28T03:48:56;0.90;99.90
22765;DHT22;11549;50.852;3.816;2023-02-28T03:51:29;0.90;99.90
22765;DHT22;11549;50.852;3.816;2023-02-28T03:54:04;0.90;99.90
22765;DHT22;11549;50.852;3.816;2023-02-28T03:56:38;0.90;99.90
22765;DHT22;11549;50.852;3.816;2023-02-28T03:59:12;0.90;99.90
22765;DHT22;11549;50.852;3.816;2023-02-28T04:01:43;0.90;99.90
22765;DHT22;11549;50.852;3.816;2023-02-28T04:04:13;0.90;99.90
22765;DHT22;11549;50.852;3.816;2023-02-28T04:06:43;0.90;99.90
22765;DHT22;11549;50.852;3.816;2023-02-28T04:09:14;0.80;99.90
22765;DHT22;11549;50.852;3.816;2023-02-28T04:11:44;0.80;99.90
22765;DHT22;11549;50.852;3.816;2023-02-28T04:14:13;0.80;99.90
22765;DHT22;11549;50.852;3.816;2023-02-28T04:16:42;1.00;99.90
22765;DHT22;11549;50.852;3.816;2023-02-28T04:19:11;0.90;99.90
22765;DHT22;11549;50.852;3.816;2023-02-28T04:21:41;0.80;99.90
22765;DHT22;11549;50.852;3.816;2023-02-28T04:24:11;0.80;99.90
22765;DHT22;11549;50.852;3.816;2023-02-28T04:26:44;0.80;99.90
22765;DHT22;11549;50.852;3.816;2023-02-28T04:29:17;0.80;99.90
22765;DHT22;11549;50.852;3.816;2023-02-28T04:31:46;0.70;99.90
22765;DHT22;11549;50.852;3.816;2023-02-28T04:34:14;0.70;99.90
22765;DHT22;11549;50.852;3.816;2023-02-28T04:36:43;0.70;99.90
22765;DHT22;11549;50.852;3.816;2023-02-28T04:39:12;0.70;99.90
22765;DHT22;11549;50.852;3.816;2023-02-28T04:41:43;0.70;99.90
22765;DHT22;11549;50.852;3.816;2023-02-28T04:44:11;0.60;99.90
22765;DHT22;11549;50.852;3.816;2023-02-28T04:46:39;0.70;99.90
22765;DHT22;11549;50.852;3.816;2023-02-28T04:49:08;0.60;99.90
22765;DHT22;11549;50.852;3.816;2023-02-28T04:51:38;0.70;99.90
22765;DHT22;11549;50.852;3.816;2023-02-28T04:54:07;0.70;99.90
22765;DHT22;11549;50.852;3.816;2023-02-28T04:56:36;0.80;99.90
22765;DHT22;11549;50.852;3.816;2023-02-28T04:59:06;0.80;99.90
22765;DHT22;11549;50.852;3.816;2023-02-28T05:01:34;0.80;99.90
22765;DHT22;11549;50.852;3.816;2023-02-28T05:04:04;0.90;99.90
22765;DHT22;11549;50.852;3.816;2023-02-28T05:06:33;0.90;99.90
22765;DHT22;11549;50.852;3.816;2023-02-28T05:09:02;0.90;99.90
22765;DHT22;11549;50.852;3.816;2023-02-28T05:11:32;1.00;99.90
22765;DHT22;11549;50.852;3.816;2023-02-28T05:14:02;1.10;99.90
22765;DHT22;11549;50.852;3.816;2023-02-28T05:16:33;1.10;99.90
22765;DHT22;11549;50.852;3.816;2023-02-28T05:19:01;1.20;99.90
22765;DHT22;11549;50.852;3.816;2023-02-28T05:21:31;1.20;99.90
22765;DHT22;11549;50.852;3.816;2023-02-28T05:24:02;1.30;99.90
22765;DHT22;11549;50.852;3.816;2023-02-28T05:26:31;1.30;99.90
22765;DHT22;11549;50.852;3.816;2023-02-28T05:29:02;1.30;99.90
22765;DHT22;11549;50.852;3.816;2023-02-28T05:31:31;1.20;99.90
22765;DHT22;11549;50.852;3.816;2023-02-28T05:34:00;1.20;99.90
22765;DHT22;11549;50.852;3.816;2023-02-28T05:36:28;1.20;99.90
22765;DHT22;11549;50.852;3.816;2023-02-28T05:38:56;1.20;99.90
22765;DHT22;11549;50.852;3.816;2023-02-28T05:41:25;1.20;99.90
22765;DHT22;11549;50.852;3.816;2023-02-28T05:43:54;1.30;99.90
22765;DHT22;11549;50.852;3.816;2023-02-28T05:46:22;1.30;99.90
22765;DHT22;11549;50.852;3.816;2023-02-28T05:48:52;1.40;99.90
22765;DHT22;11549;50.852;3.816;2023-02-28T05:51:20;1.30;99.90
22765;DHT22;11549;50.852;3.816;2023-02-28T05:53:48;1.30;99.90
22765;DHT22;11549;50.852;3.816;2023-02-28T05:56:17;1.30;99.90
22765;DHT22;11549;50.852;3.816;2023-02-28T05:58:45;1.30;99.90
22765;DHT22;11549;50.852;3.816;2023-02-28T06:01:22;1.40;99.90
22765;DHT22;11549;50.852;3.816;2023-02-28T06:03:52;1.40;99.90
22765;DHT22;11549;50.852;3.816;2023-02-28T06:06:20;1.30;99.90
22765;DHT22;11549;50.852;3.816;2023-02-28T06:08:48;1.30;99.90
22765;DHT22;11549;50.852;3.816;2023-02-28T06:11:17;1.40;99.90
22765;DHT22;11549;50.852;3.816;2023-02-28T06:13:47;1.40;99.90
22765;DHT22;11549;50.852;3.816;2023-02-28T06:16:15;1.50;99.90
22765;DHT22;11549;50.852;3.816;2023-02-28T06:18:43;1.50;99.90
22765;DHT22;11549;50.852;3.816;2023-02-28T06:21:13;1.30;99.90
22765;DHT22;11549;50.852;3.816;2023-02-28T06:23:41;1.50;99.90
22765;DHT22;11549;50.852;3.816;2023-02-28T06:26:10;1.50;99.90
22765;DHT22;11549;50.852;3.816;2023-02-28T06:28:39;1.50;99.90
22765;DHT22;11549;50.852;3.816;2023-02-28T06:31:08;1.50;99.90
22765;DHT22;11549;50.852;3.816;2023-02-28T06:33:39;1.50;99.90
22765;DHT22;11549;50.852;3.816;2023-02-28T06:36:08;1.60;99.90
22765;DHT22;11549;50.852;3.816;2023-02-28T06:38:38;1.50;99.90
22765;DHT22;11549;50.852;3.816;2023-02-28T06:41:07;1.50;99.90
22765;DHT22;11549;50.852;3.816;2023-02-28T06:43:39;1.70;99.90
22765;DHT22;11549;50.852;3.816;2023-02-28T06:46:09;1.60;99.90
22765;DHT22;11549;50.852;3.816;2023-02-28T06:48:38;1.60;99.90
22765;DHT22;11549;50.852;3.816;2023-02-28T06:51:09;1.60;99.90
22765;DHT22;11549;50.852;3.816;2023-02-28T06:53:42;1.60;99.90
22765;DHT22;11549;50.852;3.816;2023-02-28T06:56:13;1.60;99.90
22765;DHT22;11549;50.852;3.816;2023-02-28T06:58:42;1.70;99.90
22765;DHT22;11549;50.852;3.816;2023-02-28T07:01:10;1.60;99.90
22765;DHT22;11549;50.852;3.816;2023-02-28T07:03:39;1.60;99.90
22765;DHT22;11549;50.852;3.816;2023-02-28T07:06:07;1.70;99.90
22765;DHT22;11549;50.852;3.816;2023-02-28T07:08:36;1.80;99.90
22765;DHT22;11549;50.852;3.816;2023-02-28T07:11:05;1.80;99.90
22765;DHT22;11549;50.852;3.816;2023-02-28T07:13:34;1.80;99.90
22765;DHT22;11549;50.852;3.816;2023-02-28T07:16:05;1.90;99.90
22765;DHT22;11549;50.852;3.816;2023-02-28T07:18:35;2.00;99.90
22765;DHT22;11549;50.852;3.816;2023-02-28T07:21:04;2.00;99.90
22765;DHT22;11549;50.852;3.816;2023-02-28T07:23:34;2.00;99.90
22765;DHT22;11549;50.852;3.816;2023-02-28T07:26:02;1.90;99.90
22765;DHT22;11549;50.852;3.816;2023-02-28T07:28:32;1.90;99.90
22765;DHT22;11549;50.852;3.816;2023-02-28T07:31:04;2.00;99.90
22765;DHT22;11549;50.852;3.816;2023-02-28T07:33:33;2.00;99.90
22765;DHT22;11549;50.852;3.816;2023-02-28T07:36:02;2.10;99.90
22765;DHT22;11549;50.852;3.816;2023-02-28T07:38:33;2.10;99.90
22765;DHT22;11549;50.852;3.816;2023-02-28T07:41:02;2.10;99.90
22765;DHT22;11549;50.852;3.816;2023-02-28T07:43:34;2.10;99.90
22765;DHT22;11549;50.852;3.816;2023-02-28T07:46:04;2.20;99.90
22765;DHT22;11549;50.852;3.816;2023-02-28T07:48:32;2.30;99.90
22765;DHT22;11549;50.852;3.816;2023-02-28T07:51:02;2.30;99.90
22765;DHT22;11549;50.852;3.816;2023-02-28T07:53:30;2.40;99.90
22765;DHT22;11549;50.852;3.816;2023-02-28T07:55:59;2.40;99.90
22765;DHT22;11549;50.852;3.816;2023-02-28T07:58:29;2.40;99.90
22765;DHT22;11549;50.852;3.816;2023-02-28T08:01:05;2.50;99.90
22765;DHT22;11549;50.852;3.816;2023-02-28T08:03:34;2.50;99.90
22765;DHT22;11549;50.852;3.816;2023-02-28T08:06:02;2.50;99.90
22765;DHT22;11549;50.852;3.816;2023-02-28T08:08:31;2.60;99.90
22765;DHT22;11549;50.852;3.816;2023-02-28T08:11:00;2.70;99.90
22765;DHT22;11549;50.852;3.816;2023-02-28T08:13:29;2.80;99.90
22765;DHT22;11549;50.852;3.816;2023-02-28T08:16:01;2.80;99.90
22765;DHT22;11549;50.852;3.816;2023-02-28T08:18:30;2.90;99.90
22765;DHT22;11549;50.852;3.816;2023-02-28T08:21:05;2.90;99.90
22765;DHT22;11549;50.852;3.816;2023-02-28T08:23:33;2.90;99.90
22765;DHT22;11549;50.852;3.816;2023-02-28T08:26:02;3.00;99.90
22765;DHT22;11549;50.852;3.816;2023-02-28T08:28:31;3.00;99.90
22765;DHT22;11549;50.852;3.816;2023-02-28T08:31:07;3.00;99.90
22765;DHT22;11549;50.852;3.816;2023-02-28T08:33:36;3.10;99.90
22765;DHT22;11549;50.852;3.816;2023-02-28T08:36:07;3.00;99.90
22765;DHT22;11549;50.852;3.816;2023-02-28T08:38:36;3.00;99.90
22765;DHT22;11549;50.852;3.816;2023-02-28T08:41:05;3.10;99.90
22765;DHT22;11549;50.852;3.816;2023-02-28T08:43:35;3.20;99.90
22765;DHT22;11549;50.852;3.816;2023-02-28T08:46:05;3.30;99.90
22765;DHT22;11549;50.852;3.816;2023-02-28T08:48:35;3.30;99.90
22765;DHT22;11549;50.852;3.816;2023-02-28T08:51:06;3.30;99.90
22765;DHT22;11549;50.852;3.816;2023-02-28T08:53:37;3.40;99.90
22765;DHT22;11549;50.852;3.816;2023-02-28T08:56:08;3.30;99.90
22765;DHT22;11549;50.852;3.816;2023-02-28T08:58:37;3.40;99.90
22765;DHT22;11549;50.852;3.816;2023-02-28T09:01:11;3.30;99.90
22765;DHT22;11549;50.852;3.816;2023-02-28T09:03:41;3.40;99.90
22765;DHT22;11549;50.852;3.816;2023-02-28T09:06:10;3.40;99.90
22765;DHT22;11549;50.852;3.816;2023-02-28T09:08:39;3.40;99.90
22765;DHT22;11549;50.852;3.816;2023-02-28T09:11:08;3.30;99.90
22765;DHT22;11549;50.852;3.816;2023-02-28T09:13:37;3.40;99.90
22765;DHT22;11549;50.852;3.816;2023-02-28T09:16:09;3.50;99.90
22765;DHT22;11549;50.852;3.816;2023-02-28T09:18:40;3.60;99.90
22765;DHT22;11549;50.852;3.816;2023-02-28T09:21:10;3.50;99.90
22765;DHT22;11549;50.852;3.816;2023-02-28T09:23:40;3.50;99.90
22765;DHT22;11549;50.852;3.816;2023-02-28T09:26:13;3.50;99.90
22765;DHT22;11549;50.852;3.816;2023-02-28T09:28:42;3.50;99.90
22765;DHT22;11549;50.852;3.816;2023-02-28T09:31:13;3.70;99.90
22765;DHT22;11549;50.852;3.816;2023-02-28T09:33:43;3.80;99.90
22765;DHT22;11549;50.852;3.816;2023-02-28T09:36:11;3.80;99.90
22765;DHT22;11549;50.852;3.816;2023-02-28T09:38:39;3.80;99.90
22765;DHT22;11549;50.852;3.816;2023-02-28T09:41:13;3.70;99.90
22765;DHT22;11549;50.852;3.816;2023-02-28T09:43:45;3.70;99.90
22765;DHT22;11549;50.852;3.816;2023-02-28T09:46:26;3.90;99.90
22765;DHT22;11549;50.852;3.816;2023-02-28T09:48:57;3.90;99.90
22765;DHT22;11549;50.852;3.816;2023-02-28T09:51:48;3.90;99.90
22765;DHT22;11549;50.852;3.816;2023-02-28T09:54:20;3.70;99.90
22765;DHT22;11549;50.852;3.816;2023-02-28T09:56:51;3.60;99.90
22765;DHT22;11549;50.852;3.816;2023-02-28T09:59:32;3.70;99.90
22765;DHT22;11549;50.852;3.816;2023-02-28T10:02:13;3.90;99.90
22765;DHT22;11549;50.852;3.816;2023-02-28T10:04:51;4.00;99.90
22765;DHT22;11549;50.852;3.816;2023-02-28T10:07:34;4.10;99.90
22765;DHT22;11549;50.852;3.816;2023-02-28T10:10:10;4.20;99.90
22765;DHT22;11549;50.852;3.816;2023-02-28T10:12:44;4.60;99.90
22765;DHT22;11549;50.852;3.816;2023-02-28T10:15:14;4.80;99.90
22765;DHT22;11549;50.852;3.816;2023-02-28T10:17:45;5.10;99.90
22765;DHT22;11549;50.852;3.816;2023-02-28T10:20:37;5.50;99.90
22765;DHT22;11549;50.852;3.816;2023-02-28T10:23:13;5.90;99.90
22765;DHT22;11549;50.852;3.816;2023-02-28T10:25:46;6.00;99.90
22765;DHT22;11549;50.852;3.816;2023-02-28T10:28:17;6.20;99.90
22765;DHT22;11549;50.852;3.816;2023-02-28T10:30:48;6.40;99.90
22765;DHT22;11549;50.852;3.816;2023-02-28T10:33:22;6.10;99.90
22765;DHT22;11549;50.852;3.816;2023-02-28T10:35:53;6.00;99.90
22765;DHT22;11549;50.852;3.816;2023-02-28T10:38:23;6.20;99.90
22765;DHT22;11549;50.852;3.816;2023-02-28T10:40:51;6.40;99.90
22765;DHT22;11549;50.852;3.816;2023-02-28T10:43:31;6.60;99.90
22765;DHT22;11549;50.852;3.816;2023-02-28T10:46:02;6.90;99.90
22765;DHT22;11549;50.852;3.816;2023-02-28T10:48:37;7.00;99.90
22765;DHT22;11549;50.852;3.816;2023-02-28T10:51:08;6.80;99.90
22765;DHT22;11549;50.852;3.816;2023-02-28T10:53:45;6.80;99.90
22765;DHT22;11549;50.852;3.816;2023-02-28T10:56:28;6.70;99.90
22765;DHT22;11549;50.852;3.816;2023-02-28T10:59:00;6.40;99.30
22765;DHT22;11549;50.852;3.816;2023-02-28T11:01:37;6.20;99.30
22765;DHT22;11549;50.852;3.816;2023-02-28T11:04:17;6.20;99.90
22765;DHT22;11549;50.852;3.816;2023-02-28T11:06:56;6.00;99.90
22765;DHT22;11549;50.852;3.816;2023-02-28T11:09:29;6.00;99.90
22765;DHT22;11549;50.852;3.816;2023-02-28T11:11:59;6.40;99.90
22765;DHT22;11549;50.852;3.816;2023-02-28T11:14:31;6.50;99.90
22765;DHT22;11549;50.852;3.816;2023-02-28T11:17:18;6.30;99.90
22765;DHT22;11549;50.852;3.816;2023-02-28T11:19:50;6.10;99.60
22765;DHT22;11549;50.852;3.816;2023-02-28T11:22:24;6.00;99.90
22765;DHT22;11549;50.852;3.816;2023-02-28T11:24:57;6.00;99.90
22765;DHT22;11549;50.852;3.816;2023-02-28T11:27:44;6.10;99.90
22765;DHT22;11549;50.852;3.816;2023-02-28T11:30:34;6.10;99.90
22765;DHT22;11549;50.852;3.816;2023-02-28T11:33:22;6.10;98.30
22765;DHT22;11549;50.852;3.816;2023-02-28T11:35:53;6.30;99.90
22765;DHT22;11549;50.852;3.816;2023-02-28T11:38:24;6.30;98.70
22765;DHT22;11549;50.852;3.816;2023-02-28T11:41:02;6.20;99.50
22765;DHT22;11549;50.852;3.816;2023-02-28T11:43:42;6.10;98.80
22765;DHT22;11549;50.852;3.816;2023-02-28T11:46:23;6.10;99.90
22765;DHT22;11549;50.852;3.816;2023-02-28T11:49:01;6.20;98.20
22765;DHT22;11549;50.852;3.816;2023-02-28T11:51:34;6.20;97.50
22765;DHT22;11549;50.852;3.816;2023-02-28T11:57:20;6.30;96.80
22765;DHT22;11549;50.852;3.816;2023-02-28T11:59:58;6.50;96.50
22765;DHT22;11549;50.852;3.816;2023-02-28T12:02:30;6.30;92.50
22765;DHT22;11549;50.852;3.816;2023-02-28T12:05:21;6.10;93.10
22765;DHT22;11549;50.852;3.816;2023-02-28T12:08:03;6.10;95.30
22765;DHT22;11549;50.852;3.816;2023-02-28T12:10:37;6.00;94.50
22765;DHT22;11549;50.852;3.816;2023-02-28T12:13:16;6.20;93.90
22765;DHT22;11549;50.852;3.816;2023-02-28T12:16:01;6.00;94.90
22765;DHT22;11549;50.852;3.816;2023-02-28T12:18:48;6.30;94.30
22765;DHT22;11549;50.852;3.816;2023-02-28T12:21:25;6.30;93.40
22765;DHT22;11549;50.852;3.816;2023-02-28T12:24:17;6.50;94.60
22765;DHT22;11549;50.852;3.816;2023-02-28T12:26:50;6.40;94.30
22765;DHT22;11549;50.852;3.816;2023-02-28T12:29:23;6.60;94.80
22765;DHT22;11549;50.852;3.816;2023-02-28T12:31:56;6.60;93.50
22765;DHT22;11549;50.852;3.816;2023-02-28T12:34:31;6.60;93.20
22765;DHT22;11549;50.852;3.816;2023-02-28T12:37:05;6.80;93.70
22765;DHT22;11549;50.852;3.816;2023-02-28T12:39:39;6.70;93.20
22765;DHT22;11549;50.852;3.816;2023-02-28T12:42:22;6.70;93.30
22765;DHT22;11549;50.852;3.816;2023-02-28T12:44:56;6.60;93.40
22765;DHT22;11549;50.852;3.816;2023-02-28T12:47:26;6.50;91.70
22765;DHT22;11549;50.852;3.816;2023-02-28T12:49:58;6.60;91.90
22765;DHT22;11549;50.852;3.816;2023-02-28T12:52:37;6.40;93.60
22765;DHT22;11549;50.852;3.816;2023-02-28T12:55:13;6.70;93.90
22765;DHT22;11549;50.852;3.816;2023-02-28T12:57:48;6.40;90.90
22765;DHT22;11549;50.852;3.816;2023-02-28T13:00:22;6.30;93.70
22765;DHT22;11549;50.852;3.816;2023-02-28T13:03:17;6.40;92.30
22765;DHT22;11549;50.852;3.816;2023-02-28T13:06:22;6.50;93.50
22765;DHT22;11549;50.852;3.816;2023-02-28T13:09:01;6.40;92.00
22765;DHT22;11549;50.852;3.816;2023-02-28T13:11:32;6.30;94.50
22765;DHT22;11549;50.852;3.816;2023-02-28T13:14:03;6.10;93.00
22765;DHT22;11549;50.852;3.816;2023-02-28T13:16:55;6.10;92.60
22765;DHT22;11549;50.852;3.816;2023-02-28T13:19:26;6.00;92.80
22765;DHT22;11549;50.852;3.816;2023-02-28T13:21:56;6.10;96.20
22765;DHT22;11549;50.852;3.816;2023-02-28T13:24:46;6.30;92.70
22765;DHT22;11549;50.852;3.816;2023-02-28T13:27:33;6.00;95.50
22765;DHT22;11549;50.852;3.816;2023-02-28T13:33:36;6.00;93.50
22765;DHT22;11549;50.852;3.816;2023-02-28T13:36:25;5.90;91.80
22765;DHT22;11549;50.852;3.816;2023-02-28T13:38:56;5.90;91.90
22765;DHT22;11549;50.852;3.816;2023-02-28T13:41:44;6.00;92.40
22765;DHT22;11549;50.852;3.816;2023-02-28T13:44:14;6.10;93.80
22765;DHT22;11549;50.852;3.816;2023-02-28T13:47:21;6.40;91.80
22765;DHT22;11549;50.852;3.816;2023-02-28T13:49:53;6.50;92.10
22765;DHT22;11549;50.852;3.816;2023-02-28T13:52:23;6.30;93.50
22765;DHT22;11549;50.852;3.816;2023-02-28T13:55:23;6.30;92.60
22765;DHT22;11549;50.852;3.816;2023-02-28T13:58:03;6.30;91.20
22765;DHT22;11549;50.852;3.816;2023-02-28T14:00:45;6.30;92.00
22765;DHT22;11549;50.852;3.816;2023-02-28T14:03:31;6.30;91.30
22765;DHT22;11549;50.852;3.816;2023-02-28T14:06:18;6.30;94.20
22765;DHT22;11549;50.852;3.816;2023-02-28T14:08:57;6.30;93.00
22765;DHT22;11549;50.852;3.816;2023-02-28T14:11:31;6.20;93.30
22765;DHT22;11549;50.852;3.816;2023-02-28T14:14:01;6.30;93.00
22765;DHT22;11549;50.852;3.816;2023-02-28T14:16:38;6.40;90.10
22765;DHT22;11549;50.852;3.816;2023-02-28T14:19:12;6.40;91.70
22765;DHT22;11549;50.852;3.816;2023-02-28T14:21:58;6.30;91.90
22765;DHT22;11549;50.852;3.816;2023-02-28T14:24:42;6.10;91.60
22765;DHT22;11549;50.852;3.816;2023-02-28T14:27:36;6.00;91.50
22765;DHT22;11549;50.852;3.816;2023-02-28T14:30:29;6.00;92.60
22765;DHT22;11549;50.852;3.816;2023-02-28T14:33:16;6.10;93.10
22765;DHT22;11549;50.852;3.816;2023-02-28T14:35:56;6.20;91.70
22765;DHT22;11549;50.852;3.816;2023-02-28T14:38:30;6.00;91.70
22765;DHT22;11549;50.852;3.816;2023-02-28T14:41:04;6.10;94.10
22765;DHT22;11549;50.852;3.816;2023-02-28T14:43:33;6.20;93.00
22765;DHT22;11549;50.852;3.816;2023-02-28T14:46:03;6.20;93.00
22765;DHT22;11549;50.852;3.816;2023-02-28T14:48:34;6.00;91.70
22765;DHT22;11549;50.852;3.816;2023-02-28T14:51:03;5.90;92.30
22765;DHT22;11549;50.852;3.816;2023-02-28T14:53:37;6.00;91.70
22765;DHT22;11549;50.852;3.816;2023-02-28T14:56:06;5.90;91.60
22765;DHT22;11549;50.852;3.816;2023-02-28T14:58:35;5.90;93.10
22765;DHT22;11549;50.852;3.816;2023-02-28T15:01:04;5.80;91.50
22765;DHT22;11549;50.852;3.816;2023-02-28T15:03:36;5.90;92.80
22765;DHT22;11549;50.852;3.816;2023-02-28T15:06:05;5.90;91.70
22765;DHT22;11549;50.852;3.816;2023-02-28T15:08:36;5.90;91.80
22765;DHT22;11549;50.852;3.816;2023-02-28T15:11:06;5.70;91.30
22765;DHT22;11549;50.852;3.816;2023-02-28T15:13:38;5.70;92.30
22765;DHT22;11549;50.852;3.816;2023-02-28T15:16:11;5.70;92.00
22765;DHT22;11549;50.852;3.816;2023-02-28T15:18:45;5.70;93.40
22765;DHT22;11549;50.852;3.816;2023-02-28T15:21:17;5.50;92.10
22765;DHT22;11549;50.852;3.816;2023-02-28T15:23:50;5.40;93.10
22765;DHT22;11549;50.852;3.816;2023-02-28T15:26:23;5.60;94.20
22765;DHT22;11549;50.852;3.816;2023-02-28T15:28:58;5.60;91.90
22765;DHT22;11549;50.852;3.816;2023-02-28T15:31:29;5.60;93.00
22765;DHT22;11549;50.852;3.816;2023-02-28T15:34:18;5.60;91.10
22765;DHT22;11549;50.852;3.816;2023-02-28T15:36:50;5.60;93.20
22765;DHT22;11549;50.852;3.816;2023-02-28T15:39:21;5.60;92.90
22765;DHT22;11549;50.852;3.816;2023-02-28T15:42:09;5.50;93.00
22765;DHT22;11549;50.852;3.816;2023-02-28T15:44:38;5.40;92.00
22765;DHT22;11549;50.852;3.816;2023-02-28T15:47:16;5.30;94.20
22765;DHT22;11549;50.852;3.816;2023-02-28T15:49:49;5.30;94.20
22765;DHT22;11549;50.852;3.816;2023-02-28T15:52:21;5.20;94.30
22765;DHT22;11549;50.852;3.816;2023-02-28T15:54:52;5.30;95.10
22765;DHT22;11549;50.852;3.816;2023-02-28T15:57:23;5.40;95.40
22765;DHT22;11549;50.852;3.816;2023-02-28T15:59:54;5.40;93.80
22765;DHT22;11549;50.852;3.816;2023-02-28T16:02:31;5.30;95.40
22765;DHT22;11549;50.852;3.816;2023-02-28T16:05:12;5.20;95.40
22765;DHT22;11549;50.852;3.816;2023-02-28T16:07:45;5.20;94.20
22765;DHT22;11549;50.852;3.816;2023-02-28T16:10:17;5.10;96.10
22765;DHT22;11549;50.852;3.816;2023-02-28T16:12:45;5.10;96.70
22765;DHT22;11549;50.852;3.816;2023-02-28T16:15:22;5.20;95.60
22765;DHT22;11549;50.852;3.816;2023-02-28T16:17:51;5.10;95.30
22765;DHT22;11549;50.852;3.816;2023-02-28T16:20:22;5.00;95.00
22765;DHT22;11549;50.852;3.816;2023-02-28T16:22:51;5.00;95.60
22765;DHT22;11549;50.852;3.816;2023-02-28T16:25:25;5.00;96.10
22765;DHT22;11549;50.852;3.816;2023-02-28T16:27:55;5.00;96.80
22765;DHT22;11549;50.852;3.816;2023-02-28T16:30:28;4.90;96.00
22765;DHT22;11549;50.852;3.816;2023-02-28T16:32:59;4.80;97.00
22765;DHT22;11549;50.852;3.816;2023-02-28T16:35:27;4.80;97.00
22765;DHT22;11549;50.852;3.816;2023-02-28T16:37:55;4.80;97.30